sensor_id;sensor_type;location;lat;lon;timestamp;temperature;humidity
57652;DHT22;43480;53.116;6.734;2023-02-24T00:01:11;4.60;99.90
57652;DHT22;43480;53.116;6.734;2023-02-24T00:03:38;4.60;99.90
57652;DHT22;43480;53.116;6.734;2023-02-24T00:06:04;4.50;99.90
57652;DHT22;43480;53.116;6.734;2023-02-24T00:08:39;4.50;99.90
57652;DHT22;43480;53.116;6.734;2023-02-24T00:11:15;4.50;99.90
57652;DHT22;43480;53.116;6.734;2023-02-24T00:13:41;4.50;99.90
57652;DHT22;43480;53.116;6.734;2023-02-24T00:16:14;4.40;99.90
57652;DHT22;43480;53.116;6.734;2023-02-24T00:18:44;4.30;99.90
57652;DHT22;43480;53.116;6.734;2023-02-24T00:21:11;4.20;99.90
57652;DHT22;43480;53.116;6.734;2023-02-24T00:23:38;4.20;99.90
57652;DHT22;43480;53.116;6.734;2023-02-24T00:26:05;4.10;99.90
57652;DHT22;43480;53.116;6.734;2023-02-24T00:28:31;4.00;99.90
57652;DHT22;43480;53.116;6.734;2023-02-24T00:31:01;4.00;99.90
57652;DHT22;43480;53.116;6.734;2023-02-24T00:33:26;3.90;99.90
57652;DHT22;43480;53.116;6.734;2023-02-24T00:35:52;3.80;99.90
57652;DHT22;43480;53.116;6.734;2023-02-24T00:38:19;3.70;99.90
57652;DHT22;43480;53.116;6.734;2023-02-24T00:40:45;3.60;99.90
57652;DHT22;43480;53.116;6.734;2023-02-24T00:43:11;3.50;99.90
57652;DHT22;43480;53.116;6.734;2023-02-24T00:45:37;3.50;99.90
57652;DHT22;43480;53.116;6.734;2023-02-24T00:48:05;3.50;99.90
57652;DHT22;43480;53.116;6.734;2023-02-24T00:50:35;3.50;99.90
57652;DHT22;43480;53.116;6.734;2023-02-24T00:53:00;3.40;99.90
57652;DHT22;43480;53.116;6.734;2023-02-24T00:55:26;3.40;99.90
57652;DHT22;43480;53.116;6.734;2023-02-24T00:57:52;3.30;99.90
57652;DHT22;43480;53.116;6.734;2023-02-24T01:00:17;3.20;99.90
57652;DHT22;43480;53.116;6.734;2023-02-24T01:02:44;3.20;99.90
57652;DHT22;43480;53.116;6.734;2023-02-24T01:05:10;3.10;99.90
57652;DHT22;43480;53.116;6.734;2023-02-24T01:07:37;3.00;99.90
57652;DHT22;43480;53.116;6.734;2023-02-24T01:10:03;3.00;99.90
57652;DHT22;43480;53.116;6.734;2023-02-24T01:12:29;3.00;99.90
57652;DHT22;43480;53.116;6.734;2023-02-24T01:15:14;3.00;99.90
57652;DHT22;43480;53.116;6.734;2023-02-24T01:17:40;3.00;99.90
57652;DHT22;43480;53.116;6.734;2023-02-24T01:20:09;3.00;99.90
57652;DHT22;43480;53.116;6.734;2023-02-24T01:22:46;3.00;99.90
57652;DHT22;43480;53.116;6.734;2023-02-24T01:25:12;3.00;99.90
57652;DHT22;43480;53.116;6.734;2023-02-24T01:27:38;3.00;99.90
57652;DHT22;43480;53.116;6.734;2023-02-24T01:30:07;3.00;99.90
57652;DHT22;43480;53.116;6.734;2023-02-24T01:32:33;3.00;99.90
57652;DHT22;43480;53.116;6.734;2023-02-24T01:34:59;2.90;99.90
57652;DHT22;43480;53.116;6.734;2023-02-24T01:37:24;2.90;99.90
57652;DHT22;43480;53.116;6.734;2023-02-24T01:39:50;2.90;99.90
57652;DHT22;43480;53.116;6.734;2023-02-24T01:42:19;2.90;99.90
57652;DHT22;43480;53.116;6.734;2023-02-24T01:47:12;2.90;99.90
57652;DHT22;43480;53.116;6.734;2023-02-24T01:49:45;2.80;99.90
57652;DHT22;43480;53.116;6.734;2023-02-24T01:57:09;2.80;99.90
57652;DHT22;43480;53.116;6.734;2023-02-24T01:59:35;2.80;99.90
57652;DHT22;43480;53.116;6.734;2023-02-24T02:02:02;2.80;99.90
57652;DHT22;43480;53.116;6.734;2023-02-24T02:04:37;2.80;99.90
57652;DHT22;43480;53.116;6.734;2023-02-24T02:07:03;2.80;99.90
57652;DHT22;43480;53.116;6.734;2023-02-24T02:09:29;2.80;99.90
57652;DHT22;43480;53.116;6.734;2023-02-24T02:11:55;2.70;99.90
57652;DHT22;43480;53.116;6.734;2023-02-24T02:14:22;2.80;99.90
57652;DHT22;43480;53.116;6.734;2023-02-24T02:24:49;2.70;99.90
57652;DHT22;43480;53.116;6.734;2023-02-24T02:27:33;2.70;99.90
57652;DHT22;43480;53.116;6.734;2023-02-24T02:30:10;2.70;99.90
57652;DHT22;43480;53.116;6.734;2023-02-24T02:35:31;2.80;99.90
57652;DHT22;43480;53.116;6.734;2023-02-24T02:40:32;2.90;99.90
57652;DHT22;43480;53.116;6.734;2023-02-24T02:46:09;3.00;99.90
57652;DHT22;43480;53.116;6.734;2023-02-24T02:51:12;3.20;99.90
57652;DHT22;43480;53.116;6.734;2023-02-24T02:53:42;3.20;99.90
57652;DHT22;43480;53.116;6.734;2023-02-24T02:56:11;3.30;99.90
57652;DHT22;43480;53.116;6.734;2023-02-24T02:58:40;3.30;99.90
57652;DHT22;43480;53.116;6.734;2023-02-24T03:01:06;3.30;99.90
57652;DHT22;43480;53.116;6.734;2023-02-24T03:03:35;3.40;99.90
57652;DHT22;43480;53.116;6.734;2023-02-24T03:06:05;3.40;99.90
57652;DHT22;43480;53.116;6.734;2023-02-24T03:08:33;3.40;99.90
57652;DHT22;43480;53.116;6.734;2023-02-24T03:11:02;3.50;99.90
57652;DHT22;43480;53.116;6.734;2023-02-24T03:13:28;3.50;99.90
57652;DHT22;43480;53.116;6.734;2023-02-24T03:15:56;3.50;99.90
57652;DHT22;43480;53.116;6.734;2023-02-24T03:18:28;3.50;99.90
57652;DHT22;43480;53.116;6.734;2023-02-24T03:20:58;3.50;99.90
57652;DHT22;43480;53.116;6.734;2023-02-24T03:23:26;3.50;99.90
57652;DHT22;43480;53.116;6.734;2023-02-24T03:26:42;3.50;99.90
57652;DHT22;43480;53.116;6.734;2023-02-24T03:31:41;3.50;99.90
57652;DHT22;43480;53.116;6.734;2023-02-24T03:34:19;3.40;99.90
57652;DHT22;43480;53.116;6.734;2023-02-24T03:36:48;3.50;99.90
57652;DHT22;43480;53.116;6.734;2023-02-24T03:39:14;3.40;99.90
57652;DHT22;43480;53.116;6.734;2023-02-24T03:44:20;3.40;99.90
57652;DHT22;43480;53.116;6.734;2023-02-24T03:46:46;3.40;99.90
57652;DHT22;43480;53.116;6.734;2023-02-24T03:49:12;3.50;99.90
57652;DHT22;43480;53.116;6.734;2023-02-24T03:51:39;3.40;99.90
57652;DHT22;43480;53.116;6.734;2023-02-24T03:54:18;3.40;99.90
57652;DHT22;43480;53.116;6.734;2023-02-24T04:00:01;3.40;99.90
57652;DHT22;43480;53.116;6.734;2023-02-24T04:02:52;3.50;99.90
57652;DHT22;43480;53.116;6.734;2023-02-24T04:05:21;3.50;99.90
57652;DHT22;43480;53.116;6.734;2023-02-24T04:07:56;3.50;99.90
57652;DHT22;43480;53.116;6.734;2023-02-24T04:10:25;3.50;99.90
57652;DHT22;43480;53.116;6.734;2023-02-24T04:12:54;3.50;99.90
57652;DHT22;43480;53.116;6.734;2023-02-24T04:15:54;3.50;99.90
57652;DHT22;43480;53.116;6.734;2023-02-24T04:18:19;3.60;99.90
57652;DHT22;43480;53.116;6.734;2023-02-24T04:20:45;3.60;99.90
57652;DHT22;43480;53.116;6.734;2023-02-24T04:23:16;3.60;99.90
57652;DHT22;43480;53.116;6.734;2023-02-24T04:25:46;3.60;99.90
57652;DHT22;43480;53.116;6.734;2023-02-24T04:28:12;3.60;99.90
57652;DHT22;43480;53.116;6.734;2023-02-24T04:30:40;3.60;99.90
57652;DHT22;43480;53.116;6.734;2023-02-24T04:33:07;3.70;99.90
57652;DHT22;43480;53.116;6.734;2023-02-24T04:35:34;3.70;99.90
57652;DHT22;43480;53.116;6.734;2023-02-24T04:38:02;3.70;99.90
57652;DHT22;43480;53.116;6.734;2023-02-24T04:40:28;3.80;99.90
57652;DHT22;43480;53.116;6.734;2023-02-24T04:42:54;3.70;99.90
57652;DHT22;43480;53.116;6.734;2023-02-24T04:47:48;3.80;99.90
57652;DHT22;43480;53.116;6.734;2023-02-24T04:50:17;3.80;99.90
57652;DHT22;43480;53.116;6.734;2023-02-24T04:55:18;3.90;99.90
57652;DHT22;43480;53.116;6.734;2023-02-24T04:57:55;3.90;99.90
57652;DHT22;43480;53.116;6.734;2023-02-24T05:00:21;3.90;99.90
57652;DHT22;43480;53.116;6.734;2023-02-24T05:02:51;3.90;99.90
57652;DHT22;43480;53.116;6.734;2023-02-24T05:05:17;3.90;99.90
57652;DHT22;43480;53.116;6.734;2023-02-24T05:07:42;3.90;99.90
57652;DHT22;43480;53.116;6.734;2023-02-24T05:10:12;3.90;99.90
57652;DHT22;43480;53.116;6.734;2023-02-24T05:12:38;3.90;99.90
57652;DHT22;43480;53.116;6.734;2023-02-24T05:15:05;4.00;99.90
57652;DHT22;43480;53.116;6.734;2023-02-24T05:17:30;4.00;99.90
57652;DHT22;43480;53.116;6.734;2023-02-24T05:19:56;4.00;99.90
57652;DHT22;43480;53.116;6.734;2023-02-24T05:22:40;4.00;99.90
57652;DHT22;43480;53.116;6.734;2023-02-24T05:25:06;4.00;99.90
57652;DHT22;43480;53.116;6.734;2023-02-24T05:27:32;4.00;99.90
57652;DHT22;43480;53.116;6.734;2023-02-24T05:30:03;4.00;99.90
57652;DHT22;43480;53.116;6.734;2023-02-24T05:32:29;4.10;99.90
57652;DHT22;43480;53.116;6.734;2023-02-24T05:34:58;4.10;99.90
57652;DHT22;43480;53.116;6.734;2023-02-24T05:37:24;4.10;99.90
57652;DHT22;43480;53.116;6.734;2023-02-24T05:39:53;4.10;99.90
57652;DHT22;43480;53.116;6.734;2023-02-24T05:42:19;4.10;99.90
57652;DHT22;43480;53.116;6.734;2023-02-24T05:44:44;4.10;99.90
57652;DHT22;43480;53.116;6.734;2023-02-24T05:47:10;4.10;99.90
57652;DHT22;43480;53.116;6.734;2023-02-24T05:49:36;4.10;99.90
57652;DHT22;43480;53.116;6.734;2023-02-24T05:52:04;4.10;99.90
57652;DHT22;43480;53.116;6.734;2023-02-24T05:54:37;4.10;99.90
57652;DHT22;43480;53.116;6.734;2023-02-24T05:57:04;4.00;99.90
57652;DHT22;43480;53.116;6.734;2023-02-24T05:59:29;4.10;99.90
57652;DHT22;43480;53.116;6.734;2023-02-24T06:02:00;4.10;99.90
57652;DHT22;43480;53.116;6.734;2023-02-24T06:04:31;4.10;99.90
57652;DHT22;43480;53.116;6.734;2023-02-24T06:07:25;4.10;99.90
57652;DHT22;43480;53.116;6.734;2023-02-24T06:09:50;4.10;99.90
57652;DHT22;43480;53.116;6.734;2023-02-24T06:12:18;4.10;99.90
57652;DHT22;43480;53.116;6.734;2023-02-24T06:14:44;4.10;99.90
57652;DHT22;43480;53.116;6.734;2023-02-24T06:17:10;4.10;99.90
57652;DHT22;43480;53.116;6.734;2023-02-24T06:19:35;4.10;99.90
57652;DHT22;43480;53.116;6.734;2023-02-24T06:22:01;4.10;99.90
57652;DHT22;43480;53.116;6.734;2023-02-24T06:24:28;4.10;99.90
57652;DHT22;43480;53.116;6.734;2023-02-24T06:26:55;4.10;99.90
57652;DHT22;43480;53.116;6.734;2023-02-24T06:29:27;4.10;99.90
57652;DHT22;43480;53.116;6.734;2023-02-24T06:31:53;4.10;99.90
57652;DHT22;43480;53.116;6.734;2023-02-24T06:34:19;4.10;99.90
57652;DHT22;43480;53.116;6.734;2023-02-24T06:36:45;4.10;99.90
57652;DHT22;43480;53.116;6.734;2023-02-24T06:39:13;4.10;99.90
57652;DHT22;43480;53.116;6.734;2023-02-24T06:41:39;4.10;99.90
57652;DHT22;43480;53.116;6.734;2023-02-24T06:44:04;4.10;99.90
57652;DHT22;43480;53.116;6.734;2023-02-24T06:46:30;4.10;99.90
57652;DHT22;43480;53.116;6.734;2023-02-24T06:48:56;4.10;99.90
57652;DHT22;43480;53.116;6.734;2023-02-24T06:51:22;4.10;99.90
57652;DHT22;43480;53.116;6.734;2023-02-24T06:53:49;4.10;99.90
57652;DHT22;43480;53.116;6.734;2023-02-24T06:56:15;4.10;99.90
57652;DHT22;43480;53.116;6.734;2023-02-24T06:58:45;4.10;99.90
57652;DHT22;43480;53.116;6.734;2023-02-24T07:01:14;4.10;99.90
57652;DHT22;43480;53.116;6.734;2023-02-24T07:03:41;4.10;99.90
57652;DHT22;43480;53.116;6.734;2023-02-24T07:06:12;4.10;99.90
57652;DHT22;43480;53.116;6.734;2023-02-24T07:08:48;4.20;99.90
57652;DHT22;43480;53.116;6.734;2023-02-24T07:11:14;4.20;99.90
57652;DHT22;43480;53.116;6.734;2023-02-24T07:13:42;4.20;99.90
57652;DHT22;43480;53.116;6.734;2023-02-24T07:16:07;4.10;99.90
57652;DHT22;43480;53.116;6.734;2023-02-24T07:18:36;4.10;99.90
57652;DHT22;43480;53.116;6.734;2023-02-24T07:21:06;4.20;99.90
57652;DHT22;43480;53.116;6.734;2023-02-24T07:23:41;4.20;99.90
57652;DHT22;43480;53.116;6.734;2023-02-24T07:26:11;4.20;99.90
57652;DHT22;43480;53.116;6.734;2023-02-24T07:28:37;4.20;99.90
57652;DHT22;43480;53.116;6.734;2023-02-24T07:31:08;4.20;99.90
57652;DHT22;43480;53.116;6.734;2023-02-24T07:33:38;4.20;99.90
57652;DHT22;43480;53.116;6.734;2023-02-24T07:36:04;4.20;99.90
57652;DHT22;43480;53.116;6.734;2023-02-24T07:38:33;4.20;99.90
57652;DHT22;43480;53.116;6.734;2023-02-24T07:41:00;4.30;99.90
57652;DHT22;43480;53.116;6.734;2023-02-24T07:43:26;4.30;99.90
57652;DHT22;43480;53.116;6.734;2023-02-24T07:45:52;4.30;99.90
57652;DHT22;43480;53.116;6.734;2023-02-24T07:48:17;4.30;99.90
57652;DHT22;43480;53.116;6.734;2023-02-24T07:50:43;4.30;99.90
57652;DHT22;43480;53.116;6.734;2023-02-24T07:53:08;4.40;99.90
57652;DHT22;43480;53.116;6.734;2023-02-24T07:55:34;4.40;99.90
57652;DHT22;43480;53.116;6.734;2023-02-24T07:58:00;4.40;99.90
57652;DHT22;43480;53.116;6.734;2023-02-24T08:00:30;4.40;99.90
57652;DHT22;43480;53.116;6.734;2023-02-24T08:03:14;4.40;99.90
57652;DHT22;43480;53.116;6.734;2023-02-24T08:05:39;4.50;99.90
57652;DHT22;43480;53.116;6.734;2023-02-24T08:08:08;4.40;99.90
57652;DHT22;43480;53.116;6.734;2023-02-24T08:10:33;4.40;99.90
57652;DHT22;43480;53.116;6.734;2023-02-24T08:13:01;4.50;99.90
57652;DHT22;43480;53.116;6.734;2023-02-24T08:15:28;4.50;99.90
57652;DHT22;43480;53.116;6.734;2023-02-24T08:17:58;4.50;99.90
57652;DHT22;43480;53.116;6.734;2023-02-24T08:20:24;4.50;99.90
57652;DHT22;43480;53.116;6.734;2023-02-24T08:22:51;4.50;99.90
57652;DHT22;43480;53.116;6.734;2023-02-24T08:25:20;4.60;99.90
57652;DHT22;43480;53.116;6.734;2023-02-24T08:27:51;4.60;99.90
57652;DHT22;43480;53.116;6.734;2023-02-24T08:30:20;4.60;99.90
57652;DHT22;43480;53.116;6.734;2023-02-24T08:32:48;4.60;99.90
57652;DHT22;43480;53.116;6.734;2023-02-24T08:35:22;4.70;99.90
57652;DHT22;43480;53.116;6.734;2023-02-24T08:37:48;4.70;99.90
57652;DHT22;43480;53.116;6.734;2023-02-24T08:40:15;4.70;99.90
57652;DHT22;43480;53.116;6.734;2023-02-24T08:43:14;4.80;99.90
57652;DHT22;43480;53.116;6.734;2023-02-24T08:48:36;4.80;99.90
57652;DHT22;43480;53.116;6.734;2023-02-24T08:51:47;4.90;99.90
57652;DHT22;43480;53.116;6.734;2023-02-24T08:53:48;4.90;99.90
57652;DHT22;43480;53.116;6.734;2023-02-24T08:56:18;5.00;99.90
57652;DHT22;43480;53.116;6.734;2023-02-24T08:58:48;5.00;99.90
57652;DHT22;43480;53.116;6.734;2023-02-24T09:01:16;5.10;99.90
57652;DHT22;43480;53.116;6.734;2023-02-24T09:03:52;5.10;99.90
57652;DHT22;43480;53.116;6.734;2023-02-24T09:06:19;5.10;99.90
57652;DHT22;43480;53.116;6.734;2023-02-24T09:08:50;5.10;99.90
57652;DHT22;43480;53.116;6.734;2023-02-24T09:11:36;5.20;99.90
57652;DHT22;43480;53.116;6.734;2023-02-24T09:14:02;5.20;99.90
57652;DHT22;43480;53.116;6.734;2023-02-24T09:16:29;5.20;99.90
57652;DHT22;43480;53.116;6.734;2023-02-24T09:18:54;5.20;99.90
57652;DHT22;43480;53.116;6.734;2023-02-24T09:21:38;5.20;99.90
57652;DHT22;43480;53.116;6.734;2023-02-24T09:24:12;5.20;99.90
57652;DHT22;43480;53.116;6.734;2023-02-24T09:26:38;5.20;99.90
57652;DHT22;43480;53.116;6.734;2023-02-24T09:29:10;5.30;99.90
57652;DHT22;43480;53.116;6.734;2023-02-24T09:31:54;5.30;99.90
57652;DHT22;43480;53.116;6.734;2023-02-24T09:34:29;5.30;99.90
57652;DHT22;43480;53.116;6.734;2023-02-24T09:36:55;5.40;99.90
57652;DHT22;43480;53.116;6.734;2023-02-24T09:39:30;5.40;99.90
57652;DHT22;43480;53.116;6.734;2023-02-24T09:42:16;5.40;99.90
57652;DHT22;43480;53.116;6.734;2023-02-24T09:44:49;5.40;99.90
57652;DHT22;43480;53.116;6.734;2023-02-24T09:49:56;5.50;99.90
57652;DHT22;43480;53.116;6.734;2023-02-24T09:52:24;5.60;99.90
57652;DHT22;43480;53.116;6.734;2023-02-24T09:55:05;5.60;99.90
57652;DHT22;43480;53.116;6.734;2023-02-24T10:00:36;5.70;99.90
57652;DHT22;43480;53.116;6.734;2023-02-24T10:03:12;5.70;99.90
57652;DHT22;43480;53.116;6.734;2023-02-24T10:05:54;5.70;99.90
57652;DHT22;43480;53.116;6.734;2023-02-24T10:08:29;5.80;99.90
57652;DHT22;43480;53.116;6.734;2023-02-24T10:10:55;5.90;99.90
57652;DHT22;43480;53.116;6.734;2023-02-24T10:13:38;5.90;99.90
57652;DHT22;43480;53.116;6.734;2023-02-24T10:16:08;5.90;99.90
57652;DHT22;43480;53.116;6.734;2023-02-24T10:18:52;6.00;99.90
57652;DHT22;43480;53.116;6.734;2023-02-24T10:21:29;6.00;99.90
57652;DHT22;43480;53.116;6.734;2023-02-24T10:26:49;6.30;99.90
57652;DHT22;43480;53.116;6.734;2023-02-24T10:31:47;6.60;99.90
57652;DHT22;43480;53.116;6.734;2023-02-24T10:34:25;6.80;99.90
57652;DHT22;43480;53.116;6.734;2023-02-24T10:36:56;7.10;99.90
57652;DHT22;43480;53.116;6.734;2023-02-24T10:39:25;7.30;99.90
57652;DHT22;43480;53.116;6.734;2023-02-24T10:44:25;7.60;99.90
57652;DHT22;43480;53.116;6.734;2023-02-24T10:47:09;7.70;99.90
57652;DHT22;43480;53.116;6.734;2023-02-24T10:49:44;7.90;99.90
57652;DHT22;43480;53.116;6.734;2023-02-24T10:52:28;7.90;99.90
57652;DHT22;43480;53.116;6.734;2023-02-24T10:55:01;7.70;99.90
57652;DHT22;43480;53.116;6.734;2023-02-24T10:57:48;7.60;99.90
57652;DHT22;43480;53.116;6.734;2023-02-24T11:00:19;7.30;99.90
57652;DHT22;43480;53.116;6.734;2023-02-24T11:02:57;7.20;99.90
57652;DHT22;43480;53.116;6.734;2023-02-24T11:05:36;7.20;99.90
57652;DHT22;43480;53.116;6.734;2023-02-24T11:08:25;7.10;99.90
57652;DHT22;43480;53.116;6.734;2023-02-24T11:11:34;7.20;99.90
57652;DHT22;43480;53.116;6.734;2023-02-24T11:14:15;7.50;99.90
57652;DHT22;43480;53.116;6.734;2023-02-24T11:17:00;7.70;99.90
57652;DHT22;43480;53.116;6.734;2023-02-24T11:19:42;7.60;99.90
57652;DHT22;43480;53.116;6.734;2023-02-24T11:22:11;7.60;99.90
57652;DHT22;43480;53.116;6.734;2023-02-24T11:24:38;7.60;99.90
57652;DHT22;43480;53.116;6.734;2023-02-24T11:27:04;7.50;99.90
57652;DHT22;43480;53.116;6.734;2023-02-24T11:42:24;7.70;99.90
57652;DHT22;43480;53.116;6.734;2023-02-24T11:47:21;8.10;99.90
57652;DHT22;43480;53.116;6.734;2023-02-24T11:49:59;8.40;99.90
57652;DHT22;43480;53.116;6.734;2023-02-24T11:52:28;8.50;99.90
57652;DHT22;43480;53.116;6.734;2023-02-24T11:54:56;8.50;99.90
57652;DHT22;43480;53.116;6.734;2023-02-24T11:57:32;8.70;99.90
57652;DHT22;43480;53.116;6.734;2023-02-24T12:04:56;9.10;99.90
57652;DHT22;43480;53.116;6.734;2023-02-24T12:07:37;9.30;99.90
57652;DHT22;43480;53.116;6.734;2023-02-24T12:10:12;9.50;99.90
57652;DHT22;43480;53.116;6.734;2023-02-24T12:12:41;9.60;99.90
57652;DHT22;43480;53.116;6.734;2023-02-24T12:15:21;9.40;99.90
57652;DHT22;43480;53.116;6.734;2023-02-24T12:22:52;7.70;99.90
57652;DHT22;43480;53.116;6.734;2023-02-24T12:25:22;7.50;99.90
57652;DHT22;43480;53.116;6.734;2023-02-24T12:27:53;7.50;99.90
57652;DHT22;43480;53.116;6.734;2023-02-24T12:30:23;7.60;99.90
57652;DHT22;43480;53.116;6.734;2023-02-24T12:33:22;7.60;99.90
57652;DHT22;43480;53.116;6.734;2023-02-24T12:41:42;7.80;99.90
57652;DHT22;43480;53.116;6.734;2023-02-24T12:43:49;7.80;99.90
57652;DHT22;43480;53.116;6.734;2023-02-24T12:54:06;7.50;99.90
57652;DHT22;43480;53.116;6.734;2023-02-24T12:59:00;7.90;99.90
57652;DHT22;43480;53.116;6.734;2023-02-24T13:03:59;8.00;99.90
57652;DHT22;43480;53.116;6.734;2023-02-24T13:11:45;7.80;99.90
57652;DHT22;43480;53.116;6.734;2023-02-24T13:16:42;8.20;99.90
57652;DHT22;43480;53.116;6.734;2023-02-24T13:19:20;8.50;99.90
57652;DHT22;43480;53.116;6.734;2023-02-24T13:21:56;8.70;99.90
57652;DHT22;43480;53.116;6.734;2023-02-24T13:24:23;8.80;99.90
57652;DHT22;43480;53.116;6.734;2023-02-24T13:26:49;8.70;99.90
57652;DHT22;43480;53.116;6.734;2023-02-24T13:29:15;8.60;99.90
57652;DHT22;43480;53.116;6.734;2023-02-24T13:31:41;8.50;99.90
57652;DHT22;43480;53.116;6.734;2023-02-24T13:34:11;8.50;99.90
57652;DHT22;43480;53.116;6.734;2023-02-24T13:36:44;8.50;99.90
57652;DHT22;43480;53.116;6.734;2023-02-24T13:42:00;8.30;99.90
57652;DHT22;43480;53.116;6.734;2023-02-24T13:44:28;8.30;99.90
57652;DHT22;43480;53.116;6.734;2023-02-24T13:47:03;8.20;99.90
57652;DHT22;43480;53.116;6.734;2023-02-24T13:52:13;8.00;99.90
57652;DHT22;43480;53.116;6.734;2023-02-24T14:02:19;7.20;99.90
57652;DHT22;43480;53.116;6.734;2023-02-24T14:04:49;7.10;99.90
57652;DHT22;43480;53.116;6.734;2023-02-24T14:07:20;7.10;99.90
57652;DHT22;43480;53.116;6.734;2023-02-24T14:09:47;7.00;99.90
57652;DHT22;43480;53.116;6.734;2023-02-24T14:12:17;7.00;99.90
57652;DHT22;43480;53.116;6.734;2023-02-24T14:14:43;6.90;99.90
57652;DHT22;43480;53.116;6.734;2023-02-24T14:17:20;7.00;99.90
57652;DHT22;43480;53.116;6.734;2023-02-24T14:19:48;6.90;99.90
57652;DHT22;43480;53.116;6.734;2023-02-24T14:22:16;6.90;99.90
57652;DHT22;43480;53.116;6.734;2023-02-24T14:24:43;6.80;99.90
57652;DHT22;43480;53.116;6.734;2023-02-24T14:27:13;6.70;99.90
57652;DHT22;43480;53.116;6.734;2023-02-24T14:29:48;6.60;99.90
57652;DHT22;43480;53.116;6.734;2023-02-24T14:32:17;6.70;99.90
57652;DHT22;43480;53.116;6.734;2023-02-24T14:34:44;6.90;99.90
57652;DHT22;43480;53.116;6.734;2023-02-24T14:37:10;7.10;99.90
57652;DHT22;43480;53.116;6.734;2023-02-24T14:42:17;7.10;99.90
57652;DHT22;43480;53.116;6.734;2023-02-24T14:44:48;7.10;99.90
57652;DHT22;43480;53.116;6.734;2023-02-24T14:47:14;7.10;99.90
57652;DHT22;43480;53.116;6.734;2023-02-24T14:49:40;7.10;99.90
57652;DHT22;43480;53.116;6.734;2023-02-24T14:52:17;7.10;99.90
57652;DHT22;43480;53.116;6.734;2023-02-24T14:57:53;7.30;99.90
57652;DHT22;43480;53.116;6.734;2023-02-24T15:00:22;7.40;99.90
57652;DHT22;43480;53.116;6.734;2023-02-24T15:05:26;7.50;99.90
57652;DHT22;43480;53.116;6.734;2023-02-24T15:07:52;7.40;99.90
57652;DHT22;43480;53.116;6.734;2023-02-24T15:10:22;7.30;99.90
57652;DHT22;43480;53.116;6.734;2023-02-24T15:12:50;7.20;99.90
57652;DHT22;43480;53.116;6.734;2023-02-24T15:15:18;7.10;99.90
57652;DHT22;43480;53.116;6.734;2023-02-24T15:17:44;7.10;99.90
57652;DHT22;43480;53.116;6.734;2023-02-24T15:20:27;7.20;99.90
57652;DHT22;43480;53.116;6.734;2023-02-24T15:22:53;7.30;99.90
57652;DHT22;43480;53.116;6.734;2023-02-24T15:25:29;7.40;99.90
57652;DHT22;43480;53.116;6.734;2023-02-24T15:33:01;7.20;99.90
57652;DHT22;43480;53.116;6.734;2023-02-24T15:35:27;7.00;99.90
57652;DHT22;43480;53.116;6.734;2023-02-24T15:37:53;6.70;99.90
57652;DHT22;43480;53.116;6.734;2023-02-24T15:40:20;6.60;99.90
57652;DHT22;43480;53.116;6.734;2023-02-24T15:47:46;6.50;99.90
57652;DHT22;43480;53.116;6.734;2023-02-24T15:50:15;6.60;99.90
57652;DHT22;43480;53.116;6.734;2023-02-24T15:52:40;6.70;99.90
57652;DHT22;43480;53.116;6.734;2023-02-24T15:55:06;6.80;99.90
57652;DHT22;43480;53.116;6.734;2023-02-24T15:57:33;6.70;99.90
57652;DHT22;43480;53.116;6.734;2023-02-24T15:59:59;6.70;99.90
57652;DHT22;43480;53.116;6.734;2023-02-24T16:02:26;6.50;99.90
57652;DHT22;43480;53.116;6.734;2023-02-24T16:04:52;6.50;99.90
57652;DHT22;43480;53.116;6.734;2023-02-24T16:07:24;6.50;99.90
57652;DHT22;43480;53.116;6.734;2023-02-24T16:09:53;6.40;99.90
57652;DHT22;43480;53.116;6.734;2023-02-24T16:12:19;6.30;99.90
57652;DHT22;43480;53.116;6.734;2023-02-24T16:14:47;6.20;99.90
57652;DHT22;43480;53.116;6.734;2023-02-24T16:17:19;6.10;99.90
57652;DHT22;43480;53.116;6.734;2023-02-24T16:19:46;6.10;99.90
57652;DHT22;43480;53.116;6.734;2023-02-24T16:22:11;6.10;99.90
57652;DHT22;43480;53.116;6.734;2023-02-24T16:24:37;6.10;99.90
57652;DHT22;43480;53.116;6.734;2023-02-24T16:27:02;6.10;99.90
57652;DHT22;43480;53.116;6.734;2023-02-24T16:29:28;6.00;99.90
57652;DHT22;43480;53.116;6.734;2023-02-24T16:31:53;6.00;99.90
57652;DHT22;43480;53.116;6.734;2023-02-24T16:34:19;6.10;99.90
57652;DHT22;43480;53.116;6.734;2023-02-24T16:36:44;6.00;99.90
57652;DHT22;43480;53.116;6.734;2023-02-24T16:39:11;6.00;99.90
57652;DHT22;43480;53.116;6.734;2023-02-24T16:41:38;6.00;99.90
57652;DHT22;43480;53.116;6.734;2023-02-24T16:44:03;5.90;99.90
57652;DHT22;43480;53.116;6.734;2023-02-24T16:46:31;6.00;99.90
57652;DHT22;43480;53.116;6.734;2023-02-24T16:48:58;6.00;99.90
57652;DHT22;43480;53.116;6.734;2023-02-24T16:51:24;6.00;99.90
57652;DHT22;43480;53.116;6.734;2023-02-24T16:53:49;6.00;99.90
57652;DHT22;43480;53.116;6.734;2023-02-24T16:56:15;6.00;99.90
57652;DHT22;43480;53.116;6.734;2023-02-24T16:58:41;5.90;99.90
57652;DHT22;43480;53.116;6.734;2023-02-24T17:01:06;5.90;99.90
57652;DHT22;43480;53.116;6.734;2023-02-24T17:03:37;5.90;99.90
57652;DHT22;43480;53.116;6.734;2023-02-24T17:06:05;5.90;99.90
57652;DHT22;43480;53.116;6.734;2023-02-24T17:08:31;5.90;99.90
57652;DHT22;43480;53.116;6.734;2023-02-24T17:10:56;5.90;99.90
57652;DHT22;43480;53.116;6.734;2023-02-24T17:13:22;5.90;99.90
57652;DHT22;43480;53.116;6.734;2023-02-24T17:15:51;5.70;99.90
57652;DHT22;43480;53.116;6.734;2023-02-24T17:18:22;5.40;99.90
57652;DHT22;43480;53.116;6.734;2023-02-24T17:20:47;5.30;99.90
57652;DHT22;43480;53.116;6.734;2023-02-24T17:23:13;5.30;99.90
57652;DHT22;43480;53.116;6.734;2023-02-24T17:25:39;5.20;99.90
57652;DHT22;43480;53.116;6.734;2023-02-24T17:28:04;5.10;99.90
57652;DHT22;43480;53.116;6.734;2023-02-24T17:30:31;5.10;99.90
57652;DHT22;43480;53.116;6.734;2023-02-24T17:32:57;5.10;99.90
57652;DHT22;43480;53.116;6.734;2023-02-24T17:35:23;5.10;99.90
57652;DHT22;43480;53.116;6.734;2023-02-24T17:37:49;5.20;99.90
57652;DHT22;43480;53.116;6.734;2023-02-24T17:40:14;5.10;99.90
57652;DHT22;43480;53.116;6.734;2023-02-24T17:42:40;4.90;99.90
57652;DHT22;43480;53.116;6.734;2023-02-24T17:45:06;4.60;99.90
57652;DHT22;43480;53.116;6.734;2023-02-24T17:47:32;4.40;99.90
57652;DHT22;43480;53.116;6.734;2023-02-24T17:49:59;4.20;99.90
57652;DHT22;43480;53.116;6.734;2023-02-24T17:52:24;4.20;99.90
57652;DHT22;43480;53.116;6.734;2023-02-24T17:54:50;4.20;99.90
57652;DHT22;43480;53.116;6.734;2023-02-24T17:57:15;4.20;99.90
57652;DHT22;43480;53.116;6.734;2023-02-24T17:59:41;4.20;99.90
57652;DHT22;43480;53.116;6.734;2023-02-24T18:02:08;4.30;99.90
57652;DHT22;43480;53.116;6.734;2023-02-24T18:04:34;4.30;99.90
57652;DHT22;43480;53.116;6.734;2023-02-24T18:07:00;4.30;99.90
57652;DHT22;43480;53.116;6.734;2023-02-24T18:09:25;4.40;99.90
57652;DHT22;43480;53.116;6.734;2023-02-24T18:11:51;4.40;99.90
57652;DHT22;43480;53.116;6.734;2023-02-24T18:14:16;4.60;99.90
57652;DHT22;43480;53.116;6.734;2023-02-24T18:16:42;4.70;99.90
57652;DHT22;43480;53.116;6.734;2023-02-24T18:19:07;4.80;99.90